Terminal Aerodrome Forecast
Issued by NWS Wilmington, OH

Current Version | Previous Version | Graphics & Text | Print | Product List | Glossary On
Versions: 1 2 3 4 5 6 7 8 9 10 11 12 13 14 15 16 17 18 19 20 21 22 23 24
000
FTUS41 KILN 242100 AAA
TAFCVG
TAF AMD
KCVG 242104Z 2421/2524 12008KT P6SM SCT130 BKN300
     FM242300 14011KT P6SM BKN200
     FM250700 15011KT 5SM -SHRA OVC050
     FM251000 18010KT P6SM VCSH OVC025
     FM251300 22010KT 3SM -SHRA VCTS BKN012 OVC022CB
     FM251600 29017G27KT P6SM BKN015 OVC040
     FM252100 30016G26KT P6SM SCT040=

USA.gov is the U.S. government's official web portal to all federal, state and local government web resources and services.